Terminal Aerodrome Forecast
Issued by NWS

Home | Current Version | Previous Version | Text Only | Print | Product List | Glossary On
Versions: 1 2 3 4 5 6 7 8 9 10 11 12 13
000
FTUS42 TJSJ 211729
TAFIST
TAF
TIST 211729Z 2118/2218 11015KT P6SM FEW020
     FM212300 09008KT P6SM FEW025
     FM221500 12012KT P6SM FEW025=

USA.gov is the U.S. government's official web portal to all federal, state and local government web resources and services.